San Francisco International, CA

5:18 PM PDT on August 28, 2014 (GMT -0700)
Metro Oakland International | Change Station
CLOSE
Current Station
Airport
Location: Oakland,
Elevation: 7 ft
Nearby Weather Stations

Elev 7 ft 37.72 °N, 122.23 °W | Updated 25 minutes ago

Partly Cloudy
Partly Cloudy
71 °F
Feels Like 71 °F
N
16
Wind Variable Wind from WNW

Today
High -- | Low -- °F
--% Chance of Precip.
Yesterday
High -- | Low -- °F
Precip. -- in
6:36 AM 7:44 PM
Waxing Crescent, 10% visible
Pressure 29.96 in
Visibility 10.0 miles
Clouds Few 1000 ft
Dew Point 58 °F
Humidity 63%
Rainfall 0.00 in
Snow Depth Not available.
UV 3 out of 12
Pollen 7.30 out of 12
Ozone Good
PM2.5 Good
Flu Activity Not available.
METAR KOAK 282353Z 29014KT 10SM FEW010 22/14 A2996 RMK AO2 SLP145 T02170144 10239 20172 56017

More Conditions Fewer Conditions

Pressure 29.96 in
Visibility 10.0 miles
Clouds Few 1000 ft
Dew Point 58 °F
Humidity 63%
Rainfall 0.00 in
Snow Depth Not available.
UV 3 out of 12
Pollen 7.30 out of 12
Ozone Good
PM2.5 Good
Flu Activity Not available.
METAR KOAK 282353Z 29014KT 10SM FEW010 22/14 A2996 RMK AO2 SLP145 T02170144 10239 20172 56017

More Conditions Fewer Conditions

10-Day Weather Forecast

Almanac

Astronomy

Aug. 28, 2014 Rise Set
Actual Time 6:36 AM PDT 7:44 PM PDT
Civil Twilight 6:09 AM PDT 8:11 PM PDT
Nautical Twilight 5:37 AM PDT 8:43 PM PDT
Astronomical Twilight 5:03 AM PDT 9:16 PM PDT
Moon 9:29 AM PDT (8/28) 9:15 PM PDT (8/28)
Length of Visible Light 14h 01m
Length of Day
13h 07m
Tomorrow will be 2m 17s shorter.
Waxing Crescent, 10% of the Moon is Illuminated
Today
Waxing Crescent
Sep 2
First Quarter
Sep 8
Full
Sep 15
Last Quarter
Sep 24
New

Today's Extremes

State Highs State Lows

Community

WunderPhotos

Upload Photos

1,748,106 photos uploaded!

Nearby

Air Quality

  Air Quality AQ Index Pollutant
Yesterday Good
PM2.5
Yesterday Good
OZONE
Current Good
PM2.5
Current Good
OZONE
Thursday Good
PM2.5
Friday Good
PM2.5
Saturday Good
PM2.5
Sunday Good
OZONE
Monday Good
OZONE
Tuesday Good
PM2.5

Snow Depth

Station Depth Elevation
CSS Lab 4 in 6900 ft
Leavitt Meadows 0 in 7200 ft
Adin Mountain 1 in 6200 ft
Cedar Pass 0 in 7100 ft

Earthquake Activity

City Distance Mag. Time & Date
Napa, California 43 miles 2.6 11:57 AM PDT
2014-08-27
The Geysers, California 86 miles 2.6 7:42 AM PDT
2014-08-27
Soledad, California 101 miles 2.6 12:15 PM PDT
2014-08-26
Napa, California 42 miles 2.5 10:56 AM PDT
2014-08-26
Minimum magnitude displayed is 2.5.

Coastal Water Temperatures

Place Temperature
No Stations Reporting

Nearby Weather Stations